Craig, CO (81625)

11:27 AM MST on January 23, 2017 (GMT -0700)
Craig-Moffat | | Change Station
Active Advisory: Winter Weather Advisory

Elev 6194 ft 40.49 °N, 107.52 °W | Updated 34 minutes ago

Overcast
Overcast
38 °F
Feels Like 38 °F
N
0
Wind Variable Wind from North

Today
High -- | Low -- °F
--% Chance of Precip.
Yesterday
High -- | Low -- °F
Precip. -- in
Pressure 29.65 in
Visibility 10.0 miles
Clouds Few 7000 ft
Mostly Cloudy 8500 ft
Overcast 11000 ft
Dew Point 24 °F
Humidity 57%
Rainfall 0.00 in
Snow Depth Not available.
7:27 AM 5:17 PM
Waning Crescent, 17% visible
METAR KCAG 231753Z AUTO 00000KT 10SM FEW070 BKN085 OVC110 03/M04 A2962 RMK AO2 SLP039 T00331044 10039 21017 58009
Pressure 29.65 in
Visibility 10.0 miles
Clouds Few 7000 ft
Mostly Cloudy 8500 ft
Overcast 11000 ft
Dew Point 24 °F
Humidity 57%
Rainfall 0.00 in
Snow Depth Not available.
7:27 AM 5:17 PM
Waning Crescent, 17% visible
METAR KCAG 231753Z AUTO 00000KT 10SM FEW070 BKN085 OVC110 03/M04 A2962 RMK AO2 SLP039 T00331044 10039 21017 58009

Get Your Daily Forecast Email!

Thanks for signing up!

Be on the lookout for a verification email in your inbox.

You'll start receiving the daily forecast at 8 AM.

×

10-Day Weather Forecast

Almanac

Astronomy

Jan. 23, 2017 Rise Set
Actual Time
Civil Twilight
Nautical Twilight
Astronomical Twilight
Moon
Length of Visible Light
Length of Day
Tomorrow will be .
, % of the Moon is Illuminated

Today's Extremes

State Highs State Lows

Community

WunderPhotos

Upload Photos

1,962,540 photos uploaded!

WunderBlog® & News

Nearby

Air Quality

  Air Quality AQ Index Pollutant
Not available.

Snow Depth

Station Depth Elevation

Earthquake Activity

City Distance Mag. Time & Date
Minimum magnitude displayed is 2.5.

Coastal Water Temperatures

Place Temperature

Stations

Nearby Weather Stations

Station Location Temp. Windchill Dew Point Humidity Wind Precip. Elev Updated Type
                   

Watches & Warnings

Winter Weather Advisory
Issued: 9:43 AM MST Jan. 23, 2017 – National Weather Service

... Winter Weather Advisory remains in effect until 9 am MST
Tuesday...

* locations include the cities of... Rangely... Dinosaur... Craig...
   Hayden... Meeker... Steamboat Springs.

* Timing... snow... moderate at times... develops this morning and
continues through Tuesday morning.

* Snow accumulation... 3 to 6 inches.

* Winds... southwest 10 to 20 mph with gusts up to 30 mph.

* Impacts... roadways will be snow packed with winter driving
conditions continuing through the middle of the week.

Precautionary/preparedness actions...

A Winter Weather Advisory means that periods of snow and/or
blowing snow will cause travel difficulties. Be prepared for
slippery roads and limited visibilities... and use caution while
driving.